Brainard, Nebraska
Current Conditions -  °F | °C
As of 10:35 AM on Friday 19 Dec 2014 (Local Time) from KAHQ Reporting Station
Haze Haze  
Wind Chill: 26°   Ceiling: 1600
Heat Index: 32°   Visibility: 5mi
Dew Point: 29°   Wind: 7mph
Humidity: 88%   Direction: 170°S
Pressure: 30.22"   Gusts: NA
Location:  41.18°N, 97°W
Report Text: KAHQ 191635Z AUTO 17006KT 5SM BR OVC016 00/M01 A3022 RMK AO2 T00021015
Loading
Personal Weather Stations






























Interactive Weather Map New forecast layout! Learn more

10-Day Weather Forecast

Advertisements
Track Severe Weather on mobile